sensor_id;sensor_type;location;lat;lon;timestamp;pressure;altitude;pressure_sealevel;temperature;humidity
75788;BME280;64406;50.024;14.492;2022-11-13T00:01:16;99483.19;;;2.11;87.99
75788;BME280;64406;50.024;14.492;2022-11-13T00:03:43;99479.91;;;2.09;88.09
75788;BME280;64406;50.024;14.492;2022-11-13T00:06:09;99474.84;;;2.14;87.41
75788;BME280;64406;50.024;14.492;2022-11-13T00:08:35;99471.84;;;2.24;87.27
75788;BME280;64406;50.024;14.492;2022-11-13T00:11:03;99473.25;;;2.20;87.00
75788;BME280;64406;50.024;14.492;2022-11-13T00:13:29;99459.81;;;2.28;87.22
75788;BME280;64406;50.024;14.492;2022-11-13T00:16:00;99466.09;;;2.20;86.68
75788;BME280;64406;50.024;14.492;2022-11-13T00:18:28;99456.44;;;2.12;86.60
75788;BME280;64406;50.024;14.492;2022-11-13T00:20:56;99469.59;;;2.21;86.83
75788;BME280;64406;50.024;14.492;2022-11-13T00:23:21;99464.31;;;1.99;87.04
75788;BME280;64406;50.024;14.492;2022-11-13T00:25:47;99465.72;;;1.95;87.75
75788;BME280;64406;50.024;14.492;2022-11-13T00:28:13;99461.06;;;2.04;87.16
75788;BME280;64406;50.024;14.492;2022-11-13T00:30:39;99463.50;;;1.99;87.39
75788;BME280;64406;50.024;14.492;2022-11-13T00:33:05;99470.00;;;1.96;86.23
75788;BME280;64406;50.024;14.492;2022-11-13T00:35:32;99478.13;;;1.88;87.45
75788;BME280;64406;50.024;14.492;2022-11-13T00:37:57;99463.97;;;1.81;87.89
75788;BME280;64406;50.024;14.492;2022-11-13T00:40:23;99467.94;;;1.92;87.86
75788;BME280;64406;50.024;14.492;2022-11-13T00:42:48;99470.59;;;1.92;88.32
75788;BME280;64406;50.024;14.492;2022-11-13T00:45:14;99475.38;;;2.03;88.05
75788;BME280;64406;50.024;14.492;2022-11-13T00:47:43;99462.72;;;2.05;87.73
75788;BME280;64406;50.024;14.492;2022-11-13T00:50:08;99463.56;;;2.05;88.04
75788;BME280;64406;50.024;14.492;2022-11-13T00:52:34;99457.59;;;2.03;88.14
75788;BME280;64406;50.024;14.492;2022-11-13T00:55:01;99452.16;;;1.90;87.99
75788;BME280;64406;50.024;14.492;2022-11-13T00:57:27;99463.31;;;2.00;87.42
75788;BME280;64406;50.024;14.492;2022-11-13T00:59:52;99457.16;;;2.00;87.39
75788;BME280;64406;50.024;14.492;2022-11-13T01:02:18;99459.94;;;2.13;87.56
75788;BME280;64406;50.024;14.492;2022-11-13T01:04:44;99461.31;;;2.09;86.80
75788;BME280;64406;50.024;14.492;2022-11-13T01:07:09;99444.03;;;1.92;87.35
75788;BME280;64406;50.024;14.492;2022-11-13T01:09:35;99459.78;;;1.93;87.71
75788;BME280;64406;50.024;14.492;2022-11-13T01:12:00;99443.31;;;1.83;87.55
75788;BME280;64406;50.024;14.492;2022-11-13T01:14:26;99441.47;;;2.05;86.94
75788;BME280;64406;50.024;14.492;2022-11-13T01:16:52;99435.66;;;1.95;86.51
75788;BME280;64406;50.024;14.492;2022-11-13T01:19:17;99446.09;;;1.96;86.97
75788;BME280;64406;50.024;14.492;2022-11-13T01:21:43;99453.97;;;2.11;87.08
75788;BME280;64406;50.024;14.492;2022-11-13T01:24:08;99444.09;;;1.98;87.09
75788;BME280;64406;50.024;14.492;2022-11-13T01:26:34;99451.03;;;1.99;87.19
75788;BME280;64406;50.024;14.492;2022-11-13T01:29:00;99448.13;;;1.94;87.21
75788;BME280;64406;50.024;14.492;2022-11-13T01:31:27;99440.53;;;1.91;86.88
75788;BME280;64406;50.024;14.492;2022-11-13T01:33:54;99445.66;;;1.93;86.88
75788;BME280;64406;50.024;14.492;2022-11-13T01:36:22;99443.13;;;1.84;86.80
75788;BME280;64406;50.024;14.492;2022-11-13T01:38:48;99451.25;;;1.76;87.31
75788;BME280;64406;50.024;14.492;2022-11-13T01:41:23;99442.47;;;1.76;87.54
75788;BME280;64406;50.024;14.492;2022-11-13T01:43:51;99445.97;;;1.83;87.13
75788;BME280;64406;50.024;14.492;2022-11-13T01:46:31;99448.38;;;1.78;87.55
75788;BME280;64406;50.024;14.492;2022-11-13T01:51:38;99423.50;;;1.79;87.45
75788;BME280;64406;50.024;14.492;2022-11-13T01:54:08;99422.84;;;1.77;87.45
75788;BME280;64406;50.024;14.492;2022-11-13T01:56:35;99415.53;;;1.79;87.77
75788;BME280;64406;50.024;14.492;2022-11-13T01:59:17;99417.41;;;1.85;87.83
75788;BME280;64406;50.024;14.492;2022-11-13T02:01:45;99406.13;;;1.83;87.45
75788;BME280;64406;50.024;14.492;2022-11-13T02:04:10;99411.03;;;1.79;87.15
75788;BME280;64406;50.024;14.492;2022-11-13T02:06:43;99413.50;;;1.81;86.89
75788;BME280;64406;50.024;14.492;2022-11-13T02:09:11;99417.00;;;1.60;86.52
75788;BME280;64406;50.024;14.492;2022-11-13T02:11:38;99400.97;;;1.47;86.87
75788;BME280;64406;50.024;14.492;2022-11-13T02:14:05;99412.41;;;1.47;87.47
75788;BME280;64406;50.024;14.492;2022-11-13T02:16:32;99402.47;;;1.34;87.29
75788;BME280;64406;50.024;14.492;2022-11-13T02:19:01;99409.56;;;1.27;87.57
75788;BME280;64406;50.024;14.492;2022-11-13T02:21:46;99400.69;;;1.42;86.72
75788;BME280;64406;50.024;14.492;2022-11-13T02:24:35;99403.41;;;1.48;86.83
75788;BME280;64406;50.024;14.492;2022-11-13T02:27:09;99397.28;;;1.48;86.46
75788;BME280;64406;50.024;14.492;2022-11-13T02:29:37;99386.88;;;1.46;87.03
75788;BME280;64406;50.024;14.492;2022-11-13T02:32:02;99376.81;;;1.42;87.19
75788;BME280;64406;50.024;14.492;2022-11-13T02:34:28;99390.91;;;1.42;87.34
75788;BME280;64406;50.024;14.492;2022-11-13T02:36:54;99378.66;;;1.41;87.09
75788;BME280;64406;50.024;14.492;2022-11-13T02:39:19;99380.03;;;1.37;87.34
75788;BME280;64406;50.024;14.492;2022-11-13T02:41:45;99380.91;;;1.44;86.93
75788;BME280;64406;50.024;14.492;2022-11-13T02:44:10;99381.34;;;1.48;86.85
75788;BME280;64406;50.024;14.492;2022-11-13T02:46:36;99368.28;;;1.46;86.84
75788;BME280;64406;50.024;14.492;2022-11-13T02:49:02;99371.09;;;1.45;87.14
75788;BME280;64406;50.024;14.492;2022-11-13T02:51:28;99372.13;;;1.44;87.02
75788;BME280;64406;50.024;14.492;2022-11-13T02:53:54;99362.91;;;1.40;86.92
75788;BME280;64406;50.024;14.492;2022-11-13T02:56:20;99382.47;;;1.39;87.30
75788;BME280;64406;50.024;14.492;2022-11-13T02:58:45;99378.84;;;1.40;86.96
75788;BME280;64406;50.024;14.492;2022-11-13T03:01:11;99377.56;;;1.35;87.10
75788;BME280;64406;50.024;14.492;2022-11-13T03:03:37;99355.88;;;1.32;87.68
75788;BME280;64406;50.024;14.492;2022-11-13T03:06:02;99379.59;;;1.33;87.50
75788;BME280;64406;50.024;14.492;2022-11-13T03:08:28;99383.97;;;1.20;87.47
75788;BME280;64406;50.024;14.492;2022-11-13T03:10:55;99390.78;;;1.29;87.69
75788;BME280;64406;50.024;14.492;2022-11-13T03:13:20;99393.75;;;1.19;88.01
75788;BME280;64406;50.024;14.492;2022-11-13T03:15:46;99375.06;;;1.06;88.14
75788;BME280;64406;50.024;14.492;2022-11-13T03:18:12;99384.25;;;1.10;88.03
75788;BME280;64406;50.024;14.492;2022-11-13T03:20:39;99382.81;;;1.07;88.43
75788;BME280;64406;50.024;14.492;2022-11-13T03:23:05;99376.94;;;1.12;88.34
75788;BME280;64406;50.024;14.492;2022-11-13T03:25:32;99384.59;;;1.22;87.70
75788;BME280;64406;50.024;14.492;2022-11-13T03:27:58;99369.50;;;1.01;87.75
75788;BME280;64406;50.024;14.492;2022-11-13T03:30:25;99361.19;;;0.89;87.93
75788;BME280;64406;50.024;14.492;2022-11-13T03:32:53;99377.84;;;0.83;87.75
75788;BME280;64406;50.024;14.492;2022-11-13T03:35:19;99382.94;;;0.99;87.55
75788;BME280;64406;50.024;14.492;2022-11-13T03:37:44;99379.56;;;0.91;88.10
75788;BME280;64406;50.024;14.492;2022-11-13T03:40:10;99377.06;;;1.04;87.70
75788;BME280;64406;50.024;14.492;2022-11-13T03:42:35;99372.75;;;1.03;87.56
75788;BME280;64406;50.024;14.492;2022-11-13T03:45:01;99376.31;;;1.10;86.65
75788;BME280;64406;50.024;14.492;2022-11-13T03:47:27;99376.31;;;1.10;86.72
75788;BME280;64406;50.024;14.492;2022-11-13T03:49:52;99366.91;;;1.07;86.73
75788;BME280;64406;50.024;14.492;2022-11-13T03:52:18;99368.91;;;1.05;87.33
75788;BME280;64406;50.024;14.492;2022-11-13T03:54:43;99355.84;;;1.04;87.66
75788;BME280;64406;50.024;14.492;2022-11-13T03:57:09;99366.16;;;1.14;87.08
75788;BME280;64406;50.024;14.492;2022-11-13T03:59:34;99382.50;;;1.17;87.06
75788;BME280;64406;50.024;14.492;2022-11-13T04:02:00;99363.22;;;1.08;86.85
75788;BME280;64406;50.024;14.492;2022-11-13T04:04:26;99362.22;;;1.09;86.84
75788;BME280;64406;50.024;14.492;2022-11-13T04:06:51;99343.16;;;0.99;87.39
75788;BME280;64406;50.024;14.492;2022-11-13T04:09:17;99365.81;;;1.02;87.64
75788;BME280;64406;50.024;14.492;2022-11-13T04:11:42;99368.84;;;0.99;88.12
75788;BME280;64406;50.024;14.492;2022-11-13T04:14:08;99368.34;;;1.10;87.84
75788;BME280;64406;50.024;14.492;2022-11-13T04:16:33;99360.66;;;0.94;87.83
75788;BME280;64406;50.024;14.492;2022-11-13T04:18:59;99361.72;;;0.99;87.91
75788;BME280;64406;50.024;14.492;2022-11-13T04:21:24;99362.97;;;1.03;88.12
75788;BME280;64406;50.024;14.492;2022-11-13T04:23:52;99359.81;;;1.15;87.65
75788;BME280;64406;50.024;14.492;2022-11-13T04:26:17;99354.72;;;1.13;87.75
75788;BME280;64406;50.024;14.492;2022-11-13T04:28:43;99366.69;;;1.30;87.31
75788;BME280;64406;50.024;14.492;2022-11-13T04:31:09;99352.81;;;1.28;87.71
75788;BME280;64406;50.024;14.492;2022-11-13T04:33:34;99355.59;;;1.20;87.67
75788;BME280;64406;50.024;14.492;2022-11-13T04:36:00;99355.19;;;1.23;87.66
75788;BME280;64406;50.024;14.492;2022-11-13T04:38:26;99353.16;;;1.25;87.52
75788;BME280;64406;50.024;14.492;2022-11-13T04:40:51;99344.97;;;1.20;87.32
75788;BME280;64406;50.024;14.492;2022-11-13T04:43:37;99342.25;;;1.14;87.91
75788;BME280;64406;50.024;14.492;2022-11-13T04:46:02;99352.75;;;1.22;87.85
75788;BME280;64406;50.024;14.492;2022-11-13T04:48:28;99346.88;;;1.26;88.32
75788;BME280;64406;50.024;14.492;2022-11-13T04:50:53;99344.63;;;1.30;88.06
75788;BME280;64406;50.024;14.492;2022-11-13T04:53:19;99332.00;;;1.32;88.04
75788;BME280;64406;50.024;14.492;2022-11-13T04:55:44;99338.31;;;1.31;88.10
75788;BME280;64406;50.024;14.492;2022-11-13T04:58:10;99345.03;;;1.27;87.60
75788;BME280;64406;50.024;14.492;2022-11-13T05:00:35;99335.59;;;1.24;88.39
75788;BME280;64406;50.024;14.492;2022-11-13T05:03:01;99345.53;;;1.16;87.99
75788;BME280;64406;50.024;14.492;2022-11-13T05:05:26;99344.91;;;1.14;88.38
75788;BME280;64406;50.024;14.492;2022-11-13T05:07:52;99351.34;;;1.04;88.52
75788;BME280;64406;50.024;14.492;2022-11-13T05:10:18;99344.13;;;0.98;88.55
75788;BME280;64406;50.024;14.492;2022-11-13T05:12:43;99355.34;;;1.15;88.24
75788;BME280;64406;50.024;14.492;2022-11-13T05:15:09;99363.56;;;1.20;87.95
75788;BME280;64406;50.024;14.492;2022-11-13T05:17:34;99362.78;;;1.26;87.83
75788;BME280;64406;50.024;14.492;2022-11-13T05:20:00;99360.69;;;1.22;87.64
75788;BME280;64406;50.024;14.492;2022-11-13T05:22:25;99367.38;;;1.18;87.93
75788;BME280;64406;50.024;14.492;2022-11-13T05:24:51;99368.88;;;1.20;87.27
75788;BME280;64406;50.024;14.492;2022-11-13T05:27:17;99364.25;;;1.07;87.37
75788;BME280;64406;50.024;14.492;2022-11-13T05:29:42;99360.13;;;1.05;87.71
75788;BME280;64406;50.024;14.492;2022-11-13T05:32:08;99359.25;;;0.98;87.75
75788;BME280;64406;50.024;14.492;2022-11-13T05:34:33;99363.78;;;1.04;88.11
75788;BME280;64406;50.024;14.492;2022-11-13T05:36:59;99361.59;;;1.07;88.19
75788;BME280;64406;50.024;14.492;2022-11-13T05:39:24;99362.91;;;1.18;88.17
75788;BME280;64406;50.024;14.492;2022-11-13T05:41:51;99334.66;;;1.11;87.29
75788;BME280;64406;50.024;14.492;2022-11-13T05:44:16;99335.69;;;1.09;87.21
75788;BME280;64406;50.024;14.492;2022-11-13T05:46:42;99338.66;;;1.21;87.34
75788;BME280;64406;50.024;14.492;2022-11-13T05:49:08;99340.34;;;1.29;87.43
75788;BME280;64406;50.024;14.492;2022-11-13T05:51:34;99322.69;;;1.15;87.59
75788;BME280;64406;50.024;14.492;2022-11-13T05:54:00;99338.78;;;1.13;87.71
75788;BME280;64406;50.024;14.492;2022-11-13T05:56:29;99331.72;;;1.20;87.55
75788;BME280;64406;50.024;14.492;2022-11-13T05:58:55;99323.25;;;1.10;87.56
75788;BME280;64406;50.024;14.492;2022-11-13T06:01:26;99324.13;;;0.96;88.08
75788;BME280;64406;50.024;14.492;2022-11-13T06:03:56;99324.75;;;0.98;88.17
75788;BME280;64406;50.024;14.492;2022-11-13T06:06:24;99331.13;;;1.03;88.12
75788;BME280;64406;50.024;14.492;2022-11-13T06:08:50;99309.72;;;1.05;87.92
75788;BME280;64406;50.024;14.492;2022-11-13T06:11:19;99323.50;;;1.15;87.57
75788;BME280;64406;50.024;14.492;2022-11-13T06:13:45;99320.63;;;1.17;87.16
75788;BME280;64406;50.024;14.492;2022-11-13T06:16:14;99320.84;;;1.15;87.13
75788;BME280;64406;50.024;14.492;2022-11-13T06:18:41;99314.50;;;1.16;87.31
75788;BME280;64406;50.024;14.492;2022-11-13T06:21:18;99325.31;;;1.15;87.83
75788;BME280;64406;50.024;14.492;2022-11-13T06:23:45;99325.69;;;1.12;87.46
75788;BME280;64406;50.024;14.492;2022-11-13T06:26:19;99306.69;;;1.08;87.63
75788;BME280;64406;50.024;14.492;2022-11-13T06:28:46;99319.19;;;1.14;87.53
75788;BME280;64406;50.024;14.492;2022-11-13T06:31:23;99312.44;;;1.12;87.11
75788;BME280;64406;50.024;14.492;2022-11-13T06:33:49;99321.09;;;1.20;86.44
75788;BME280;64406;50.024;14.492;2022-11-13T06:36:17;99326.97;;;1.16;86.46
75788;BME280;64406;50.024;14.492;2022-11-13T06:38:43;99332.53;;;0.99;87.07
75788;BME280;64406;50.024;14.492;2022-11-13T06:41:11;99335.25;;;1.06;86.90
75788;BME280;64406;50.024;14.492;2022-11-13T06:43:38;99329.22;;;1.19;86.67
75788;BME280;64406;50.024;14.492;2022-11-13T06:46:07;99318.81;;;1.17;86.53
75788;BME280;64406;50.024;14.492;2022-11-13T06:48:34;99318.25;;;1.22;87.01
75788;BME280;64406;50.024;14.492;2022-11-13T06:51:02;99314.31;;;1.18;87.14
75788;BME280;64406;50.024;14.492;2022-11-13T06:53:28;99310.91;;;1.24;87.51
75788;BME280;64406;50.024;14.492;2022-11-13T06:55:54;99316.50;;;1.35;87.21
75788;BME280;64406;50.024;14.492;2022-11-13T06:58:20;99307.13;;;1.33;87.09
75788;BME280;64406;50.024;14.492;2022-11-13T07:00:46;99309.63;;;1.41;87.75
75788;BME280;64406;50.024;14.492;2022-11-13T07:03:19;99318.31;;;1.56;86.86
75788;BME280;64406;50.024;14.492;2022-11-13T07:05:45;99300.69;;;1.49;86.98
75788;BME280;64406;50.024;14.492;2022-11-13T07:08:11;99314.22;;;1.54;86.75
75788;BME280;64406;50.024;14.492;2022-11-13T07:10:37;99314.06;;;1.62;86.97
75788;BME280;64406;50.024;14.492;2022-11-13T07:13:04;99297.88;;;1.57;87.34
75788;BME280;64406;50.024;14.492;2022-11-13T07:15:32;99297.69;;;1.58;86.17
75788;BME280;64406;50.024;14.492;2022-11-13T07:17:59;99286.44;;;1.56;86.46
75788;BME280;64406;50.024;14.492;2022-11-13T07:20:26;99288.13;;;1.64;86.61
75788;BME280;64406;50.024;14.492;2022-11-13T07:22:54;99289.22;;;1.76;85.76
75788;BME280;64406;50.024;14.492;2022-11-13T07:25:21;99298.16;;;1.69;86.02
75788;BME280;64406;50.024;14.492;2022-11-13T07:27:46;99282.84;;;1.71;85.03
75788;BME280;64406;50.024;14.492;2022-11-13T07:30:12;99294.50;;;1.70;85.37
75788;BME280;64406;50.024;14.492;2022-11-13T07:32:37;99286.28;;;1.64;85.59
75788;BME280;64406;50.024;14.492;2022-11-13T07:35:03;99290.41;;;1.67;85.76
75788;BME280;64406;50.024;14.492;2022-11-13T07:37:29;99294.06;;;1.66;85.68
75788;BME280;64406;50.024;14.492;2022-11-13T07:39:54;99298.19;;;1.75;85.43
75788;BME280;64406;50.024;14.492;2022-11-13T07:42:20;99299.63;;;1.78;85.72
75788;BME280;64406;50.024;14.492;2022-11-13T07:44:46;99294.38;;;1.84;85.93
75788;BME280;64406;50.024;14.492;2022-11-13T07:47:11;99298.69;;;1.85;85.90
75788;BME280;64406;50.024;14.492;2022-11-13T07:49:37;99296.88;;;1.93;85.89
75788;BME280;64406;50.024;14.492;2022-11-13T07:52:03;99297.34;;;2.03;85.98
75788;BME280;64406;50.024;14.492;2022-11-13T07:54:28;99292.63;;;1.98;85.85
75788;BME280;64406;50.024;14.492;2022-11-13T07:56:54;99305.91;;;1.98;85.53
75788;BME280;64406;50.024;14.492;2022-11-13T07:59:19;99299.94;;;1.96;85.49
75788;BME280;64406;50.024;14.492;2022-11-13T08:01:45;99299.75;;;1.98;86.28
75788;BME280;64406;50.024;14.492;2022-11-13T08:04:11;99291.44;;;2.07;85.99
75788;BME280;64406;50.024;14.492;2022-11-13T08:06:37;99296.97;;;2.12;85.83
75788;BME280;64406;50.024;14.492;2022-11-13T08:09:03;99301.72;;;2.24;85.87
75788;BME280;64406;50.024;14.492;2022-11-13T08:11:29;99304.19;;;2.25;85.57
75788;BME280;64406;50.024;14.492;2022-11-13T08:13:54;99305.84;;;2.33;84.85
75788;BME280;64406;50.024;14.492;2022-11-13T08:16:20;99300.78;;;2.38;85.54
75788;BME280;64406;50.024;14.492;2022-11-13T08:18:48;99312.44;;;2.43;84.65
75788;BME280;64406;50.024;14.492;2022-11-13T08:21:14;99316.34;;;2.48;84.66
75788;BME280;64406;50.024;14.492;2022-11-13T08:23:41;99297.75;;;2.54;84.75
75788;BME280;64406;50.024;14.492;2022-11-13T08:26:07;99301.84;;;2.63;84.58
75788;BME280;64406;50.024;14.492;2022-11-13T08:28:34;99307.34;;;2.49;84.42
75788;BME280;64406;50.024;14.492;2022-11-13T08:31:00;99300.38;;;2.48;84.55
75788;BME280;64406;50.024;14.492;2022-11-13T08:33:28;99315.75;;;2.52;84.62
75788;BME280;64406;50.024;14.492;2022-11-13T08:35:58;99300.22;;;2.69;84.07
75788;BME280;64406;50.024;14.492;2022-11-13T08:38:24;99302.50;;;2.65;83.79
75788;BME280;64406;50.024;14.492;2022-11-13T08:40:51;99294.53;;;2.79;nan
75788;BME280;64406;50.024;14.492;2022-11-13T08:43:16;99308.88;;;2.84;83.64
75788;BME280;64406;50.024;14.492;2022-11-13T08:45:46;99299.66;;;2.80;82.90
75788;BME280;64406;50.024;14.492;2022-11-13T08:48:12;99311.56;;;2.97;83.17
75788;BME280;64406;50.024;14.492;2022-11-13T08:50:38;99305.63;;;3.15;83.18
75788;BME280;64406;50.024;14.492;2022-11-13T08:53:04;99300.31;;;3.22;82.32
75788;BME280;64406;50.024;14.492;2022-11-13T08:55:32;99299.91;;;3.32;81.69
75788;BME280;64406;50.024;14.492;2022-11-13T08:57:59;99300.09;;;3.23;82.53
75788;BME280;64406;50.024;14.492;2022-11-13T09:00:26;99288.84;;;3.35;81.08
75788;BME280;64406;50.024;14.492;2022-11-13T09:02:53;99291.50;;;3.35;81.99
75788;BME280;64406;50.024;14.492;2022-11-13T09:05:20;99292.09;;;3.43;82.13
75788;BME280;64406;50.024;14.492;2022-11-13T09:07:45;99288.81;;;3.54;80.06
75788;BME280;64406;50.024;14.492;2022-11-13T09:10:11;99287.78;;;3.62;80.31
75788;BME280;64406;50.024;14.492;2022-11-13T09:12:37;99286.38;;;3.46;80.81
75788;BME280;64406;50.024;14.492;2022-11-13T09:15:03;99276.97;;;3.31;80.81
75788;BME280;64406;50.024;14.492;2022-11-13T09:17:29;99276.53;;;3.40;80.43
75788;BME280;64406;50.024;14.492;2022-11-13T09:19:55;99282.44;;;3.62;80.79
75788;BME280;64406;50.024;14.492;2022-11-13T09:22:21;99272.44;;;3.58;80.77
75788;BME280;64406;50.024;14.492;2022-11-13T09:24:47;99278.72;;;3.90;80.07
75788;BME280;64406;50.024;14.492;2022-11-13T09:27:13;99270.47;;;4.04;79.50
75788;BME280;64406;50.024;14.492;2022-11-13T09:29:39;99277.44;;;4.05;78.84
75788;BME280;64406;50.024;14.492;2022-11-13T09:32:04;99288.69;;;4.07;78.95
75788;BME280;64406;50.024;14.492;2022-11-13T09:34:30;99271.31;;;3.98;79.92
75788;BME280;64406;50.024;14.492;2022-11-13T09:36:58;99284.63;;;4.05;79.68
75788;BME280;64406;50.024;14.492;2022-11-13T09:39:24;99283.44;;;3.88;79.61
75788;BME280;64406;50.024;14.492;2022-11-13T09:41:56;99285.25;;;3.94;80.01
75788;BME280;64406;50.024;14.492;2022-11-13T09:49:59;99275.41;;;3.94;79.46
75788;BME280;64406;50.024;14.492;2022-11-13T09:52:32;99282.59;;;3.94;80.05
75788;BME280;64406;50.024;14.492;2022-11-13T09:54:58;99277.03;;;4.02;80.25
75788;BME280;64406;50.024;14.492;2022-11-13T09:58:00;99271.47;;;4.10;80.07
75788;BME280;64406;50.024;14.492;2022-11-13T10:00:32;99275.53;;;4.19;79.40
75788;BME280;64406;50.024;14.492;2022-11-13T10:09:02;99267.06;;;4.29;78.82
75788;BME280;64406;50.024;14.492;2022-11-13T10:14:15;99252.72;;;4.30;79.43
75788;BME280;64406;50.024;14.492;2022-11-13T10:16:54;99258.44;;;4.33;79.44
75788;BME280;64406;50.024;14.492;2022-11-13T10:20:01;99260.03;;;4.41;79.67
75788;BME280;64406;50.024;14.492;2022-11-13T10:22:35;99254.09;;;4.39;79.20
75788;BME280;64406;50.024;14.492;2022-11-13T10:25:16;99245.03;;;4.47;79.29
75788;BME280;64406;50.024;14.492;2022-11-13T10:27:44;99249.41;;;4.34;78.84
75788;BME280;64406;50.024;14.492;2022-11-13T10:30:15;99253.84;;;4.47;79.97
75788;BME280;64406;50.024;14.492;2022-11-13T10:32:42;99240.91;;;4.51;79.43
75788;BME280;64406;50.024;14.492;2022-11-13T10:35:31;99238.00;;;4.59;79.08
75788;BME280;64406;50.024;14.492;2022-11-13T10:38:06;99228.13;;;4.59;79.70
75788;BME280;64406;50.024;14.492;2022-11-13T10:40:36;99226.38;;;4.78;79.74
75788;BME280;64406;50.024;14.492;2022-11-13T10:43:13;99215.28;;;4.75;79.54
75788;BME280;64406;50.024;14.492;2022-11-13T10:45:41;99216.94;;;5.01;79.49
75788;BME280;64406;50.024;14.492;2022-11-13T10:48:21;99209.84;;;5.38;78.65
75788;BME280;64406;50.024;14.492;2022-11-13T10:51:05;99213.28;;;5.63;78.12
75788;BME280;64406;50.024;14.492;2022-11-13T10:53:43;99191.75;;;5.77;76.68
75788;BME280;64406;50.024;14.492;2022-11-13T10:58:44;99192.25;;;5.67;77.48
75788;BME280;64406;50.024;14.492;2022-11-13T11:01:22;99180.41;;;5.63;78.33
75788;BME280;64406;50.024;14.492;2022-11-13T11:03:49;99159.38;;;5.66;78.04
75788;BME280;64406;50.024;14.492;2022-11-13T11:06:15;99172.28;;;5.88;77.92
75788;BME280;64406;50.024;14.492;2022-11-13T11:08:40;99167.16;;;6.05;78.14
75788;BME280;64406;50.024;14.492;2022-11-13T11:16:40;99159.59;;;6.02;78.28
75788;BME280;64406;50.024;14.492;2022-11-13T11:19:10;99157.97;;;5.82;78.57
75788;BME280;64406;50.024;14.492;2022-11-13T11:21:39;99152.72;;;5.87;79.05
75788;BME280;64406;50.024;14.492;2022-11-13T11:24:12;99145.41;;;6.01;79.20
75788;BME280;64406;50.024;14.492;2022-11-13T11:26:49;99151.19;;;5.98;79.91
75788;BME280;64406;50.024;14.492;2022-11-13T11:29:24;99143.84;;;5.93;80.28
75788;BME280;64406;50.024;14.492;2022-11-13T11:34:43;99140.22;;;5.88;81.29
75788;BME280;64406;50.024;14.492;2022-11-13T11:37:14;99139.09;;;5.95;81.39
75788;BME280;64406;50.024;14.492;2022-11-13T11:40:02;99128.19;;;5.97;81.51
75788;BME280;64406;50.024;14.492;2022-11-13T11:42:35;99124.75;;;6.08;81.01
75788;BME280;64406;50.024;14.492;2022-11-13T11:47:47;99113.72;;;6.16;80.63
75788;BME280;64406;50.024;14.492;2022-11-13T11:50:15;99104.69;;;6.29;80.22
75788;BME280;64406;50.024;14.492;2022-11-13T11:52:53;99099.16;;;6.12;81.46
75788;BME280;64406;50.024;14.492;2022-11-13T11:55:52;99107.19;;;6.12;81.17
75788;BME280;64406;50.024;14.492;2022-11-13T11:58:31;99106.31;;;6.00;82.00
75788;BME280;64406;50.024;14.492;2022-11-13T12:01:23;99089.97;;;6.08;81.44
75788;BME280;64406;50.024;14.492;2022-11-13T12:07:01;99079.63;;;6.12;82.11
75788;BME280;64406;50.024;14.492;2022-11-13T12:09:33;99069.63;;;6.19;81.99
75788;BME280;64406;50.024;14.492;2022-11-13T12:12:17;99074.97;;;6.19;81.25
75788;BME280;64406;50.024;14.492;2022-11-13T12:17:34;99061.09;;;5.98;82.56
75788;BME280;64406;50.024;14.492;2022-11-13T12:20:29;99050.25;;;5.93;82.54
75788;BME280;64406;50.024;14.492;2022-11-13T12:28:20;99047.38;;;6.07;82.21
75788;BME280;64406;50.024;14.492;2022-11-13T12:30:59;99052.88;;;6.12;82.61
75788;BME280;64406;50.024;14.492;2022-11-13T12:36:23;99043.44;;;6.09;82.50
75788;BME280;64406;50.024;14.492;2022-11-13T12:42:12;99049.28;;;6.18;81.71
75788;BME280;64406;50.024;14.492;2022-11-13T12:44:56;99039.69;;;5.98;82.35
75788;BME280;64406;50.024;14.492;2022-11-13T12:47:24;99044.72;;;6.07;82.31
75788;BME280;64406;50.024;14.492;2022-11-13T12:50:27;99027.06;;;5.87;82.71
75788;BME280;64406;50.024;14.492;2022-11-13T12:53:01;99022.47;;;5.64;83.44
75788;BME280;64406;50.024;14.492;2022-11-13T12:55:32;99025.00;;;5.59;83.86
75788;BME280;64406;50.024;14.492;2022-11-13T12:58:23;99014.81;;;5.68;83.76
75788;BME280;64406;50.024;14.492;2022-11-13T13:00:59;99023.50;;;5.63;83.78
75788;BME280;64406;50.024;14.492;2022-11-13T13:03:41;99020.53;;;5.71;84.00
75788;BME280;64406;50.024;14.492;2022-11-13T13:08:59;99017.97;;;5.77;83.92
75788;BME280;64406;50.024;14.492;2022-11-13T13:11:37;99005.03;;;5.92;83.57
75788;BME280;64406;50.024;14.492;2022-11-13T13:19:38;99001.09;;;5.94;83.88
75788;BME280;64406;50.024;14.492;2022-11-13T13:22:09;99003.41;;;5.91;83.83
75788;BME280;64406;50.024;14.492;2022-11-13T13:24:37;98999.88;;;5.90;84.29
75788;BME280;64406;50.024;14.492;2022-11-13T13:27:27;98994.78;;;5.89;84.33
75788;BME280;64406;50.024;14.492;2022-11-13T13:29:52;98990.75;;;5.98;84.44
75788;BME280;64406;50.024;14.492;2022-11-13T13:32:27;98980.63;;;6.00;84.41
75788;BME280;64406;50.024;14.492;2022-11-13T13:35:16;98992.41;;;6.11;84.00
75788;BME280;64406;50.024;14.492;2022-11-13T13:38:04;98983.91;;;6.02;84.13
75788;BME280;64406;50.024;14.492;2022-11-13T13:40:40;98987.75;;;6.18;84.50
75788;BME280;64406;50.024;14.492;2022-11-13T13:43:41;98985.78;;;6.25;84.27
75788;BME280;64406;50.024;14.492;2022-11-13T13:46:15;98983.47;;;6.29;83.74
75788;BME280;64406;50.024;14.492;2022-11-13T13:48:44;98977.28;;;6.40;83.70
75788;BME280;64406;50.024;14.492;2022-11-13T13:51:17;98975.91;;;6.37;83.75
75788;BME280;64406;50.024;14.492;2022-11-13T13:53:47;98968.56;;;6.33;84.33
75788;BME280;64406;50.024;14.492;2022-11-13T13:56:14;98964.84;;;6.45;84.89
75788;BME280;64406;50.024;14.492;2022-11-13T13:58:41;98956.00;;;6.45;84.12
75788;BME280;64406;50.024;14.492;2022-11-13T14:01:12;98962.75;;;6.47;84.39
75788;BME280;64406;50.024;14.492;2022-11-13T14:03:38;98972.28;;;6.55;84.67
75788;BME280;64406;50.024;14.492;2022-11-13T14:06:23;98962.16;;;6.57;85.05